sensor_id;sensor_type;location;lat;lon;timestamp;temperature;humidity
7494;DHT22;3788;49.902;8.590;2023-11-18T00:00:47;7.10;99.90
7494;DHT22;3788;49.902;8.590;2023-11-18T00:03:13;7.10;99.90
7494;DHT22;3788;49.902;8.590;2023-11-18T00:05:40;7.00;99.90
7494;DHT22;3788;49.902;8.590;2023-11-18T00:08:07;7.10;99.90
7494;DHT22;3788;49.902;8.590;2023-11-18T00:10:34;7.00;99.90
7494;DHT22;3788;49.902;8.590;2023-11-18T00:13:02;7.00;99.90
7494;DHT22;3788;49.902;8.590;2023-11-18T00:15:29;7.00;99.90
7494;DHT22;3788;49.902;8.590;2023-11-18T00:17:56;7.00;99.90
7494;DHT22;3788;49.902;8.590;2023-11-18T00:20:22;7.00;99.90
7494;DHT22;3788;49.902;8.590;2023-11-18T00:22:49;7.10;99.90
7494;DHT22;3788;49.902;8.590;2023-11-18T00:25:16;7.00;99.90
7494;DHT22;3788;49.902;8.590;2023-11-18T00:27:43;7.00;99.90
7494;DHT22;3788;49.902;8.590;2023-11-18T00:30:12;6.90;99.90
7494;DHT22;3788;49.902;8.590;2023-11-18T00:32:39;6.90;99.90
7494;DHT22;3788;49.902;8.590;2023-11-18T00:35:07;6.80;99.90
7494;DHT22;3788;49.902;8.590;2023-11-18T00:37:34;6.80;99.90
7494;DHT22;3788;49.902;8.590;2023-11-18T00:40:00;6.80;99.90
7494;DHT22;3788;49.902;8.590;2023-11-18T00:42:28;6.80;99.90
7494;DHT22;3788;49.902;8.590;2023-11-18T00:44:55;6.90;99.90
7494;DHT22;3788;49.902;8.590;2023-11-18T00:47:24;6.90;99.90
7494;DHT22;3788;49.902;8.590;2023-11-18T00:49:50;7.00;99.90
7494;DHT22;3788;49.902;8.590;2023-11-18T00:52:19;7.00;99.90
7494;DHT22;3788;49.902;8.590;2023-11-18T00:54:46;7.00;99.90
7494;DHT22;3788;49.902;8.590;2023-11-18T00:57:12;7.10;99.90
7494;DHT22;3788;49.902;8.590;2023-11-18T00:59:41;7.10;99.90
7494;DHT22;3788;49.902;8.590;2023-11-18T01:02:08;7.10;99.90
7494;DHT22;3788;49.902;8.590;2023-11-18T01:04:36;7.10;99.90
7494;DHT22;3788;49.902;8.590;2023-11-18T01:07:04;7.10;99.90
7494;DHT22;3788;49.902;8.590;2023-11-18T01:09:31;7.00;99.90
7494;DHT22;3788;49.902;8.590;2023-11-18T01:12:05;7.00;99.90
7494;DHT22;3788;49.902;8.590;2023-11-18T01:14:35;7.00;99.90
7494;DHT22;3788;49.902;8.590;2023-11-18T01:17:03;7.00;99.90
7494;DHT22;3788;49.902;8.590;2023-11-18T01:19:29;6.90;99.90
7494;DHT22;3788;49.902;8.590;2023-11-18T01:21:58;6.90;99.90
7494;DHT22;3788;49.902;8.590;2023-11-18T01:24:24;6.90;99.90
7494;DHT22;3788;49.902;8.590;2023-11-18T01:26:51;6.90;99.90
7494;DHT22;3788;49.902;8.590;2023-11-18T01:29:18;7.00;99.90
7494;DHT22;3788;49.902;8.590;2023-11-18T01:31:46;6.90;99.90
7494;DHT22;3788;49.902;8.590;2023-11-18T01:34:13;6.90;99.90
7494;DHT22;3788;49.902;8.590;2023-11-18T01:36:40;6.90;99.90
7494;DHT22;3788;49.902;8.590;2023-11-18T01:39:10;6.80;99.90
7494;DHT22;3788;49.902;8.590;2023-11-18T01:41:38;6.80;99.90
7494;DHT22;3788;49.902;8.590;2023-11-18T01:44:05;6.80;99.90
7494;DHT22;3788;49.902;8.590;2023-11-18T01:46:33;6.80;99.90
7494;DHT22;3788;49.902;8.590;2023-11-18T01:49:01;6.80;99.90
7494;DHT22;3788;49.902;8.590;2023-11-18T01:51:29;6.90;99.90
7494;DHT22;3788;49.902;8.590;2023-11-18T01:53:57;6.90;99.90
7494;DHT22;3788;49.902;8.590;2023-11-18T01:56:27;6.90;99.90
7494;DHT22;3788;49.902;8.590;2023-11-18T01:58:54;7.00;99.90
7494;DHT22;3788;49.902;8.590;2023-11-18T02:01:24;7.00;99.90
7494;DHT22;3788;49.902;8.590;2023-11-18T02:03:52;7.00;99.90
7494;DHT22;3788;49.902;8.590;2023-11-18T02:06:19;7.00;99.90
7494;DHT22;3788;49.902;8.590;2023-11-18T02:08:47;7.00;99.90
7494;DHT22;3788;49.902;8.590;2023-11-18T02:11:17;7.00;99.90
7494;DHT22;3788;49.902;8.590;2023-11-18T02:13:50;7.00;99.90
7494;DHT22;3788;49.902;8.590;2023-11-18T02:16:19;6.90;99.90
7494;DHT22;3788;49.902;8.590;2023-11-18T02:18:47;6.90;99.90
7494;DHT22;3788;49.902;8.590;2023-11-18T02:21:15;6.80;99.90
7494;DHT22;3788;49.902;8.590;2023-11-18T02:23:43;6.70;99.90
7494;DHT22;3788;49.902;8.590;2023-11-18T02:26:20;6.60;99.90
7494;DHT22;3788;49.902;8.590;2023-11-18T02:28:47;6.60;99.90
7494;DHT22;3788;49.902;8.590;2023-11-18T02:31:19;6.50;99.90
7494;DHT22;3788;49.902;8.590;2023-11-18T02:33:52;6.50;99.90
7494;DHT22;3788;49.902;8.590;2023-11-18T02:36:25;6.50;99.90
7494;DHT22;3788;49.902;8.590;2023-11-18T02:38:58;6.40;99.90
7494;DHT22;3788;49.902;8.590;2023-11-18T02:41:27;6.40;99.90
7494;DHT22;3788;49.902;8.590;2023-11-18T02:43:55;6.30;99.90
7494;DHT22;3788;49.902;8.590;2023-11-18T02:46:24;6.30;99.90
7494;DHT22;3788;49.902;8.590;2023-11-18T02:48:53;6.20;99.90
7494;DHT22;3788;49.902;8.590;2023-11-18T02:51:20;6.20;99.90
7494;DHT22;3788;49.902;8.590;2023-11-18T02:53:47;6.20;99.90
7494;DHT22;3788;49.902;8.590;2023-11-18T02:56:14;6.20;99.90
7494;DHT22;3788;49.902;8.590;2023-11-18T02:58:44;6.10;99.90
7494;DHT22;3788;49.902;8.590;2023-11-18T03:01:11;6.10;99.90
7494;DHT22;3788;49.902;8.590;2023-11-18T03:03:38;6.00;99.90
7494;DHT22;3788;49.902;8.590;2023-11-18T03:06:05;6.00;99.90
7494;DHT22;3788;49.902;8.590;2023-11-18T03:08:32;5.90;99.90
7494;DHT22;3788;49.902;8.590;2023-11-18T03:10:59;5.90;99.90
7494;DHT22;3788;49.902;8.590;2023-11-18T03:13:26;5.80;99.90
7494;DHT22;3788;49.902;8.590;2023-11-18T03:15:55;5.80;99.90
7494;DHT22;3788;49.902;8.590;2023-11-18T03:18:21;5.80;99.90
7494;DHT22;3788;49.902;8.590;2023-11-18T03:20:48;5.80;99.90
7494;DHT22;3788;49.902;8.590;2023-11-18T03:23:15;5.70;99.90
7494;DHT22;3788;49.902;8.590;2023-11-18T03:25:41;5.70;99.90
7494;DHT22;3788;49.902;8.590;2023-11-18T03:28:09;5.60;99.90
7494;DHT22;3788;49.902;8.590;2023-11-18T03:30:35;5.60;99.90
7494;DHT22;3788;49.902;8.590;2023-11-18T03:33:04;5.60;99.90
7494;DHT22;3788;49.902;8.590;2023-11-18T03:35:31;5.50;99.90
7494;DHT22;3788;49.902;8.590;2023-11-18T03:37:58;5.50;99.90
7494;DHT22;3788;49.902;8.590;2023-11-18T03:40:25;5.40;99.90
7494;DHT22;3788;49.902;8.590;2023-11-18T03:42:54;5.40;99.90
7494;DHT22;3788;49.902;8.590;2023-11-18T03:45:22;5.40;99.90
7494;DHT22;3788;49.902;8.590;2023-11-18T03:47:48;5.40;99.90
7494;DHT22;3788;49.902;8.590;2023-11-18T03:50:17;5.40;99.90
7494;DHT22;3788;49.902;8.590;2023-11-18T03:52:44;5.50;99.90
7494;DHT22;3788;49.902;8.590;2023-11-18T03:55:11;5.50;99.90
7494;DHT22;3788;49.902;8.590;2023-11-18T03:57:37;5.50;99.90
7494;DHT22;3788;49.902;8.590;2023-11-18T04:00:05;5.50;99.90
7494;DHT22;3788;49.902;8.590;2023-11-18T04:02:32;5.60;99.90
7494;DHT22;3788;49.902;8.590;2023-11-18T04:05:01;5.60;99.90
7494;DHT22;3788;49.902;8.590;2023-11-18T04:07:30;5.60;99.90
7494;DHT22;3788;49.902;8.590;2023-11-18T04:09:57;5.70;99.90
7494;DHT22;3788;49.902;8.590;2023-11-18T04:12:23;5.70;99.90
7494;DHT22;3788;49.902;8.590;2023-11-18T04:14:52;5.70;99.90
7494;DHT22;3788;49.902;8.590;2023-11-18T04:17:18;5.70;99.90
7494;DHT22;3788;49.902;8.590;2023-11-18T04:19:45;5.70;99.90
7494;DHT22;3788;49.902;8.590;2023-11-18T04:22:12;5.60;99.90
7494;DHT22;3788;49.902;8.590;2023-11-18T04:24:40;5.60;99.90
7494;DHT22;3788;49.902;8.590;2023-11-18T04:27:10;5.60;99.90
7494;DHT22;3788;49.902;8.590;2023-11-18T04:29:37;5.60;99.90
7494;DHT22;3788;49.902;8.590;2023-11-18T04:32:06;5.60;99.90
7494;DHT22;3788;49.902;8.590;2023-11-18T04:34:35;5.60;99.90
7494;DHT22;3788;49.902;8.590;2023-11-18T04:37:02;5.50;99.90
7494;DHT22;3788;49.902;8.590;2023-11-18T04:39:29;5.50;99.90
7494;DHT22;3788;49.902;8.590;2023-11-18T04:41:59;5.50;99.90
7494;DHT22;3788;49.902;8.590;2023-11-18T04:44:26;5.50;99.90
7494;DHT22;3788;49.902;8.590;2023-11-18T04:46:53;5.40;99.90
7494;DHT22;3788;49.902;8.590;2023-11-18T04:49:20;5.40;99.90
7494;DHT22;3788;49.902;8.590;2023-11-18T04:51:46;5.40;99.90
7494;DHT22;3788;49.902;8.590;2023-11-18T04:54:13;5.40;99.90
7494;DHT22;3788;49.902;8.590;2023-11-18T04:56:39;5.40;99.90
7494;DHT22;3788;49.902;8.590;2023-11-18T04:59:07;5.40;99.90
7494;DHT22;3788;49.902;8.590;2023-11-18T05:01:34;5.40;99.90
7494;DHT22;3788;49.902;8.590;2023-11-18T05:04:02;5.30;99.90
7494;DHT22;3788;49.902;8.590;2023-11-18T05:06:29;5.30;99.90
7494;DHT22;3788;49.902;8.590;2023-11-18T05:08:56;5.20;99.90
7494;DHT22;3788;49.902;8.590;2023-11-18T05:11:22;5.20;99.90
7494;DHT22;3788;49.902;8.590;2023-11-18T05:13:49;5.20;99.90
7494;DHT22;3788;49.902;8.590;2023-11-18T05:16:18;5.10;99.90
7494;DHT22;3788;49.902;8.590;2023-11-18T05:18:44;5.10;99.90
7494;DHT22;3788;49.902;8.590;2023-11-18T05:21:11;5.10;99.90
7494;DHT22;3788;49.902;8.590;2023-11-18T05:23:37;5.10;99.90
7494;DHT22;3788;49.902;8.590;2023-11-18T05:26:05;5.00;99.90
7494;DHT22;3788;49.902;8.590;2023-11-18T05:28:32;5.00;99.90
7494;DHT22;3788;49.902;8.590;2023-11-18T05:30:58;4.90;99.90
7494;DHT22;3788;49.902;8.590;2023-11-18T05:33:28;4.90;99.90
7494;DHT22;3788;49.902;8.590;2023-11-18T05:35:55;4.80;99.90
7494;DHT22;3788;49.902;8.590;2023-11-18T05:38:22;4.80;99.90
7494;DHT22;3788;49.902;8.590;2023-11-18T05:40:52;4.80;99.90
7494;DHT22;3788;49.902;8.590;2023-11-18T05:43:23;4.80;99.90
7494;DHT22;3788;49.902;8.590;2023-11-18T05:45:51;4.80;99.90
7494;DHT22;3788;49.902;8.590;2023-11-18T05:48:39;4.80;99.90
7494;DHT22;3788;49.902;8.590;2023-11-18T05:51:05;4.80;99.90
7494;DHT22;3788;49.902;8.590;2023-11-18T05:53:32;4.80;99.90
7494;DHT22;3788;49.902;8.590;2023-11-18T05:55:59;4.80;99.90
7494;DHT22;3788;49.902;8.590;2023-11-18T05:58:26;4.90;99.90
7494;DHT22;3788;49.902;8.590;2023-11-18T06:00:53;4.90;99.90
7494;DHT22;3788;49.902;8.590;2023-11-18T06:03:20;4.90;99.90
7494;DHT22;3788;49.902;8.590;2023-11-18T06:05:49;4.90;99.90
7494;DHT22;3788;49.902;8.590;2023-11-18T06:08:16;4.90;99.90
7494;DHT22;3788;49.902;8.590;2023-11-18T06:10:43;4.90;99.90
7494;DHT22;3788;49.902;8.590;2023-11-18T06:13:10;4.90;99.90
7494;DHT22;3788;49.902;8.590;2023-11-18T06:15:38;4.90;99.90
7494;DHT22;3788;49.902;8.590;2023-11-18T06:18:05;5.00;99.90
7494;DHT22;3788;49.902;8.590;2023-11-18T06:20:33;5.00;99.90
7494;DHT22;3788;49.902;8.590;2023-11-18T06:23:01;5.00;99.90
7494;DHT22;3788;49.902;8.590;2023-11-18T06:25:28;5.00;99.90
7494;DHT22;3788;49.902;8.590;2023-11-18T06:27:57;5.00;99.90
7494;DHT22;3788;49.902;8.590;2023-11-18T06:30:24;5.00;99.90
7494;DHT22;3788;49.902;8.590;2023-11-18T06:32:51;5.10;99.90
7494;DHT22;3788;49.902;8.590;2023-11-18T06:35:18;5.10;99.90
7494;DHT22;3788;49.902;8.590;2023-11-18T06:37:46;5.10;99.90
7494;DHT22;3788;49.902;8.590;2023-11-18T06:40:15;5.10;99.90
7494;DHT22;3788;49.902;8.590;2023-11-18T06:42:47;5.10;99.90
7494;DHT22;3788;49.902;8.590;2023-11-18T06:45:13;5.10;99.90
7494;DHT22;3788;49.902;8.590;2023-11-18T06:47:40;5.20;99.90
7494;DHT22;3788;49.902;8.590;2023-11-18T06:50:08;5.20;99.90
7494;DHT22;3788;49.902;8.590;2023-11-18T06:52:37;5.20;99.90
7494;DHT22;3788;49.902;8.590;2023-11-18T06:55:04;5.20;99.90
7494;DHT22;3788;49.902;8.590;2023-11-18T06:57:32;5.30;99.90
7494;DHT22;3788;49.902;8.590;2023-11-18T06:59:59;5.30;99.90
7494;DHT22;3788;49.902;8.590;2023-11-18T07:02:26;5.40;99.90
7494;DHT22;3788;49.902;8.590;2023-11-18T07:04:52;5.40;99.90
7494;DHT22;3788;49.902;8.590;2023-11-18T07:07:19;5.50;99.90
7494;DHT22;3788;49.902;8.590;2023-11-18T07:09:46;5.50;99.90
7494;DHT22;3788;49.902;8.590;2023-11-18T07:12:12;5.60;99.90
7494;DHT22;3788;49.902;8.590;2023-11-18T07:14:40;5.60;99.90
7494;DHT22;3788;49.902;8.590;2023-11-18T07:17:07;5.70;99.90
7494;DHT22;3788;49.902;8.590;2023-11-18T07:19:34;5.80;99.90
7494;DHT22;3788;49.902;8.590;2023-11-18T07:22:00;5.80;99.90
7494;DHT22;3788;49.902;8.590;2023-11-18T07:24:28;5.80;99.90
7494;DHT22;3788;49.902;8.590;2023-11-18T07:26:55;5.90;99.90
7494;DHT22;3788;49.902;8.590;2023-11-18T07:29:22;5.90;99.90
7494;DHT22;3788;49.902;8.590;2023-11-18T07:31:50;6.00;99.90
7494;DHT22;3788;49.902;8.590;2023-11-18T07:34:17;6.00;99.90
7494;DHT22;3788;49.902;8.590;2023-11-18T07:36:43;6.10;99.90
7494;DHT22;3788;49.902;8.590;2023-11-18T07:39:11;6.20;99.90
7494;DHT22;3788;49.902;8.590;2023-11-18T07:41:41;6.30;99.90
7494;DHT22;3788;49.902;8.590;2023-11-18T07:44:08;6.30;99.90
7494;DHT22;3788;49.902;8.590;2023-11-18T07:46:38;6.40;99.90
7494;DHT22;3788;49.902;8.590;2023-11-18T07:49:09;6.50;99.90
7494;DHT22;3788;49.902;8.590;2023-11-18T07:51:36;6.60;99.90
7494;DHT22;3788;49.902;8.590;2023-11-18T07:54:03;6.70;99.90
7494;DHT22;3788;49.902;8.590;2023-11-18T07:56:30;6.70;99.90
7494;DHT22;3788;49.902;8.590;2023-11-18T07:58:57;6.80;99.90
7494;DHT22;3788;49.902;8.590;2023-11-18T08:01:24;6.80;99.90
7494;DHT22;3788;49.902;8.590;2023-11-18T08:03:51;6.90;99.90
7494;DHT22;3788;49.902;8.590;2023-11-18T08:06:19;6.90;99.90
7494;DHT22;3788;49.902;8.590;2023-11-18T08:08:46;6.90;99.90
7494;DHT22;3788;49.902;8.590;2023-11-18T08:11:13;7.00;99.90
7494;DHT22;3788;49.902;8.590;2023-11-18T08:13:40;7.00;99.90
7494;DHT22;3788;49.902;8.590;2023-11-18T08:16:07;7.00;99.90
7494;DHT22;3788;49.902;8.590;2023-11-18T08:18:35;7.10;99.90
7494;DHT22;3788;49.902;8.590;2023-11-18T08:21:02;7.10;99.90
7494;DHT22;3788;49.902;8.590;2023-11-18T08:23:31;7.10;99.90
7494;DHT22;3788;49.902;8.590;2023-11-18T08:25:58;7.10;99.90
7494;DHT22;3788;49.902;8.590;2023-11-18T08:28:25;7.10;99.90
7494;DHT22;3788;49.902;8.590;2023-11-18T08:30:52;7.10;99.90
7494;DHT22;3788;49.902;8.590;2023-11-18T08:33:19;7.10;99.90
7494;DHT22;3788;49.902;8.590;2023-11-18T08:35:46;7.10;99.90
7494;DHT22;3788;49.902;8.590;2023-11-18T08:38:13;7.20;99.90
7494;DHT22;3788;49.902;8.590;2023-11-18T08:40:41;7.20;99.90
7494;DHT22;3788;49.902;8.590;2023-11-18T08:43:09;7.20;99.90
7494;DHT22;3788;49.902;8.590;2023-11-18T08:45:36;7.20;99.90
7494;DHT22;3788;49.902;8.590;2023-11-18T08:48:06;7.20;99.90
7494;DHT22;3788;49.902;8.590;2023-11-18T08:50:34;7.20;99.90
7494;DHT22;3788;49.902;8.590;2023-11-18T08:53:01;7.20;99.90
7494;DHT22;3788;49.902;8.590;2023-11-18T08:55:32;7.30;99.90
7494;DHT22;3788;49.902;8.590;2023-11-18T08:58:07;7.30;99.90
7494;DHT22;3788;49.902;8.590;2023-11-18T09:00:44;7.30;99.90
7494;DHT22;3788;49.902;8.590;2023-11-18T09:03:20;7.30;99.90
7494;DHT22;3788;49.902;8.590;2023-11-18T09:05:55;7.30;99.90
7494;DHT22;3788;49.902;8.590;2023-11-18T09:08:31;7.40;99.90
7494;DHT22;3788;49.902;8.590;2023-11-18T09:11:01;7.40;99.90
7494;DHT22;3788;49.902;8.590;2023-11-18T09:13:29;7.50;99.90
7494;DHT22;3788;49.902;8.590;2023-11-18T09:15:57;7.50;99.90
7494;DHT22;3788;49.902;8.590;2023-11-18T09:18:25;7.60;99.90
7494;DHT22;3788;49.902;8.590;2023-11-18T09:20:52;7.60;99.90
7494;DHT22;3788;49.902;8.590;2023-11-18T09:23:21;7.70;99.90
7494;DHT22;3788;49.902;8.590;2023-11-18T09:25:48;7.70;99.90
7494;DHT22;3788;49.902;8.590;2023-11-18T09:28:15;7.70;99.90
7494;DHT22;3788;49.902;8.590;2023-11-18T09:30:45;7.60;99.90
7494;DHT22;3788;49.902;8.590;2023-11-18T09:33:17;7.60;99.90
7494;DHT22;3788;49.902;8.590;2023-11-18T09:35:52;7.60;99.90
7494;DHT22;3788;49.902;8.590;2023-11-18T09:38:21;7.70;99.90
7494;DHT22;3788;49.902;8.590;2023-11-18T09:40:49;7.70;99.90
7494;DHT22;3788;49.902;8.590;2023-11-18T09:43:18;7.70;99.90
7494;DHT22;3788;49.902;8.590;2023-11-18T09:45:49;7.70;99.90
7494;DHT22;3788;49.902;8.590;2023-11-18T09:48:18;7.80;99.90
7494;DHT22;3788;49.902;8.590;2023-11-18T09:50:51;7.80;99.90
7494;DHT22;3788;49.902;8.590;2023-11-18T09:53:19;7.80;99.90
7494;DHT22;3788;49.902;8.590;2023-11-18T09:55:50;7.80;99.90
7494;DHT22;3788;49.902;8.590;2023-11-18T09:58:21;7.80;99.90
7494;DHT22;3788;49.902;8.590;2023-11-18T10:00:54;7.80;99.90
7494;DHT22;3788;49.902;8.590;2023-11-18T10:03:24;7.90;99.90
7494;DHT22;3788;49.902;8.590;2023-11-18T10:05:51;7.90;99.90
7494;DHT22;3788;49.902;8.590;2023-11-18T10:08:20;8.00;99.90
7494;DHT22;3788;49.902;8.590;2023-11-18T10:10:51;8.10;99.90
7494;DHT22;3788;49.902;8.590;2023-11-18T10:13:31;8.10;99.90
7494;DHT22;3788;49.902;8.590;2023-11-18T10:16:01;8.10;99.90
7494;DHT22;3788;49.902;8.590;2023-11-18T10:18:30;8.10;99.90
7494;DHT22;3788;49.902;8.590;2023-11-18T10:21:00;8.10;99.90
7494;DHT22;3788;49.902;8.590;2023-11-18T10:23:29;8.10;99.90
7494;DHT22;3788;49.902;8.590;2023-11-18T10:26:00;8.00;99.90
7494;DHT22;3788;49.902;8.590;2023-11-18T10:28:30;8.00;99.90
7494;DHT22;3788;49.902;8.590;2023-11-18T10:31:00;8.00;99.90
7494;DHT22;3788;49.902;8.590;2023-11-18T10:33:30;8.10;99.90
7494;DHT22;3788;49.902;8.590;2023-11-18T10:35:57;8.10;99.90
7494;DHT22;3788;49.902;8.590;2023-11-18T10:38:29;8.10;99.90
7494;DHT22;3788;49.902;8.590;2023-11-18T10:40:57;8.10;99.90
7494;DHT22;3788;49.902;8.590;2023-11-18T10:43:27;8.10;99.90
7494;DHT22;3788;49.902;8.590;2023-11-18T10:46:06;8.20;99.90
7494;DHT22;3788;49.902;8.590;2023-11-18T10:48:38;8.30;99.90
7494;DHT22;3788;49.902;8.590;2023-11-18T10:51:06;8.30;99.90
7494;DHT22;3788;49.902;8.590;2023-11-18T10:53:33;8.40;99.90
7494;DHT22;3788;49.902;8.590;2023-11-18T10:56:03;8.50;99.90
7494;DHT22;3788;49.902;8.590;2023-11-18T10:58:35;8.60;99.90
7494;DHT22;3788;49.902;8.590;2023-11-18T11:01:07;8.60;99.90
7494;DHT22;3788;49.902;8.590;2023-11-18T11:03:52;8.70;99.90
7494;DHT22;3788;49.902;8.590;2023-11-18T11:06:22;8.70;99.90
7494;DHT22;3788;49.902;8.590;2023-11-18T11:08:49;8.70;99.90
7494;DHT22;3788;49.902;8.590;2023-11-18T11:11:20;8.70;99.90
7494;DHT22;3788;49.902;8.590;2023-11-18T11:13:49;8.70;99.90
7494;DHT22;3788;49.902;8.590;2023-11-18T11:16:25;8.70;99.90
7494;DHT22;3788;49.902;8.590;2023-11-18T11:19:03;8.70;99.90
7494;DHT22;3788;49.902;8.590;2023-11-18T11:21:37;8.70;99.90
7494;DHT22;3788;49.902;8.590;2023-11-18T11:24:12;8.70;99.90
7494;DHT22;3788;49.902;8.590;2023-11-18T11:26:54;8.70;99.90
7494;DHT22;3788;49.902;8.590;2023-11-18T11:29:26;8.70;99.90
7494;DHT22;3788;49.902;8.590;2023-11-18T11:32:01;8.70;99.90
7494;DHT22;3788;49.902;8.590;2023-11-18T11:34:29;8.80;99.90
7494;DHT22;3788;49.902;8.590;2023-11-18T11:36:59;8.80;99.90
7494;DHT22;3788;49.902;8.590;2023-11-18T11:39:27;8.80;99.90
7494;DHT22;3788;49.902;8.590;2023-11-18T11:41:55;8.80;99.90
7494;DHT22;3788;49.902;8.590;2023-11-18T11:44:24;8.80;99.90
7494;DHT22;3788;49.902;8.590;2023-11-18T11:46:56;8.80;99.90
7494;DHT22;3788;49.902;8.590;2023-11-18T11:49:26;8.80;99.90
7494;DHT22;3788;49.902;8.590;2023-11-18T11:52:00;8.80;99.90
7494;DHT22;3788;49.902;8.590;2023-11-18T11:54:34;8.80;99.90
7494;DHT22;3788;49.902;8.590;2023-11-18T11:57:03;8.70;99.90
7494;DHT22;3788;49.902;8.590;2023-11-18T11:59:35;8.80;99.90
7494;DHT22;3788;49.902;8.590;2023-11-18T12:02:10;8.70;99.90
7494;DHT22;3788;49.902;8.590;2023-11-18T12:04:43;8.70;99.90
7494;DHT22;3788;49.902;8.590;2023-11-18T12:07:10;8.70;99.90
7494;DHT22;3788;49.902;8.590;2023-11-18T12:09:40;8.70;99.90
7494;DHT22;3788;49.902;8.590;2023-11-18T12:12:17;8.70;99.90
7494;DHT22;3788;49.902;8.590;2023-11-18T12:14:51;8.70;99.90
7494;DHT22;3788;49.902;8.590;2023-11-18T12:17:23;8.70;99.90
7494;DHT22;3788;49.902;8.590;2023-11-18T12:19:54;8.70;99.90
7494;DHT22;3788;49.902;8.590;2023-11-18T12:22:25;8.70;99.90
7494;DHT22;3788;49.902;8.590;2023-11-18T12:28:08;8.70;99.90
7494;DHT22;3788;49.902;8.590;2023-11-18T12:30:43;8.70;99.90
7494;DHT22;3788;49.902;8.590;2023-11-18T12:33:23;8.70;99.90
7494;DHT22;3788;49.902;8.590;2023-11-18T12:42:02;8.60;99.90
7494;DHT22;3788;49.902;8.590;2023-11-18T12:44:38;8.60;99.90
7494;DHT22;3788;49.902;8.590;2023-11-18T12:47:08;8.60;99.90
7494;DHT22;3788;49.902;8.590;2023-11-18T12:49:41;8.60;99.90
7494;DHT22;3788;49.902;8.590;2023-11-18T12:52:08;8.50;99.90
7494;DHT22;3788;49.902;8.590;2023-11-18T12:54:36;8.50;99.90
7494;DHT22;3788;49.902;8.590;2023-11-18T12:57:07;8.50;99.90
7494;DHT22;3788;49.902;8.590;2023-11-18T12:59:34;8.50;99.90
7494;DHT22;3788;49.902;8.590;2023-11-18T13:02:01;8.50;99.90
7494;DHT22;3788;49.902;8.590;2023-11-18T13:04:30;8.50;99.90
7494;DHT22;3788;49.902;8.590;2023-11-18T13:06:58;8.50;99.90
7494;DHT22;3788;49.902;8.590;2023-11-18T13:09:26;8.50;99.90
7494;DHT22;3788;49.902;8.590;2023-11-18T13:11:59;8.50;99.90
7494;DHT22;3788;49.902;8.590;2023-11-18T13:14:32;8.50;99.90
7494;DHT22;3788;49.902;8.590;2023-11-18T13:17:02;8.50;99.90
7494;DHT22;3788;49.902;8.590;2023-11-18T13:19:35;8.50;99.90
7494;DHT22;3788;49.902;8.590;2023-11-18T13:22:05;8.50;99.90
7494;DHT22;3788;49.902;8.590;2023-11-18T13:24:33;8.50;99.90
7494;DHT22;3788;49.902;8.590;2023-11-18T13:27:02;8.50;99.90
7494;DHT22;3788;49.902;8.590;2023-11-18T13:29:30;8.50;99.90
7494;DHT22;3788;49.902;8.590;2023-11-18T13:31:58;8.50;99.90
7494;DHT22;3788;49.902;8.590;2023-11-18T13:34:32;8.60;99.90
7494;DHT22;3788;49.902;8.590;2023-11-18T13:37:05;8.60;99.90
7494;DHT22;3788;49.902;8.590;2023-11-18T13:39:32;8.60;99.90
7494;DHT22;3788;49.902;8.590;2023-11-18T13:42:18;8.60;99.90
7494;DHT22;3788;49.902;8.590;2023-11-18T13:44:45;8.60;99.90
7494;DHT22;3788;49.902;8.590;2023-11-18T13:47:14;8.70;99.90
7494;DHT22;3788;49.902;8.590;2023-11-18T13:49:43;8.70;99.90
7494;DHT22;3788;49.902;8.590;2023-11-18T13:52:13;8.70;99.90
7494;DHT22;3788;49.902;8.590;2023-11-18T13:54:42;8.70;99.90
7494;DHT22;3788;49.902;8.590;2023-11-18T13:57:11;8.70;99.90
7494;DHT22;3788;49.902;8.590;2023-11-18T13:59:38;8.70;99.90
7494;DHT22;3788;49.902;8.590;2023-11-18T14:02:15;8.80;99.90
7494;DHT22;3788;49.902;8.590;2023-11-18T14:04:42;8.80;99.90
7494;DHT22;3788;49.902;8.590;2023-11-18T14:07:14;8.80;99.90
7494;DHT22;3788;49.902;8.590;2023-11-18T14:09:41;8.80;99.90
7494;DHT22;3788;49.902;8.590;2023-11-18T14:12:08;8.80;99.90
7494;DHT22;3788;49.902;8.590;2023-11-18T14:14:36;8.80;99.90
7494;DHT22;3788;49.902;8.590;2023-11-18T14:17:03;8.80;99.90
7494;DHT22;3788;49.902;8.590;2023-11-18T14:19:31;8.80;99.90
7494;DHT22;3788;49.902;8.590;2023-11-18T14:22:00;8.80;99.90
7494;DHT22;3788;49.902;8.590;2023-11-18T14:24:30;8.80;99.90
7494;DHT22;3788;49.902;8.590;2023-11-18T14:26:57;8.80;99.90
7494;DHT22;3788;49.902;8.590;2023-11-18T14:29:24;8.80;99.90
7494;DHT22;3788;49.902;8.590;2023-11-18T14:31:53;8.80;99.90
7494;DHT22;3788;49.902;8.590;2023-11-18T14:34:20;8.80;99.90
7494;DHT22;3788;49.902;8.590;2023-11-18T14:36:47;8.70;99.90
7494;DHT22;3788;49.902;8.590;2023-11-18T14:39:14;8.70;99.90
7494;DHT22;3788;49.902;8.590;2023-11-18T14:41:45;8.70;99.90
7494;DHT22;3788;49.902;8.590;2023-11-18T14:44:12;8.70;99.90
7494;DHT22;3788;49.902;8.590;2023-11-18T14:46:39;8.70;99.90
7494;DHT22;3788;49.902;8.590;2023-11-18T14:49:06;8.70;99.90
7494;DHT22;3788;49.902;8.590;2023-11-18T14:51:35;8.70;99.90
7494;DHT22;3788;49.902;8.590;2023-11-18T14:54:02;8.70;99.90
7494;DHT22;3788;49.902;8.590;2023-11-18T14:56:31;8.70;99.90
7494;DHT22;3788;49.902;8.590;2023-11-18T14:58:59;8.70;99.90
7494;DHT22;3788;49.902;8.590;2023-11-18T15:01:26;8.70;99.90
7494;DHT22;3788;49.902;8.590;2023-11-18T15:03:54;8.70;99.90
7494;DHT22;3788;49.902;8.590;2023-11-18T15:06:25;8.70;99.90
7494;DHT22;3788;49.902;8.590;2023-11-18T15:08:52;8.70;99.90
7494;DHT22;3788;49.902;8.590;2023-11-18T15:11:21;8.60;99.90
7494;DHT22;3788;49.902;8.590;2023-11-18T15:13:48;8.60;99.90
7494;DHT22;3788;49.902;8.590;2023-11-18T15:16:16;8.60;99.90
7494;DHT22;3788;49.902;8.590;2023-11-18T15:18:44;8.60;99.90
7494;DHT22;3788;49.902;8.590;2023-11-18T15:21:12;8.60;99.90
7494;DHT22;3788;49.902;8.590;2023-11-18T15:23:40;8.50;99.90
7494;DHT22;3788;49.902;8.590;2023-11-18T15:26:08;8.50;99.90
7494;DHT22;3788;49.902;8.590;2023-11-18T15:28:35;8.50;99.90
7494;DHT22;3788;49.902;8.590;2023-11-18T15:31:02;8.40;99.90
7494;DHT22;3788;49.902;8.590;2023-11-18T15:33:30;8.40;99.90
7494;DHT22;3788;49.902;8.590;2023-11-18T15:35:57;8.40;99.90
7494;DHT22;3788;49.902;8.590;2023-11-18T15:38:24;8.40;99.90
7494;DHT22;3788;49.902;8.590;2023-11-18T15:40:50;8.30;99.90
7494;DHT22;3788;49.902;8.590;2023-11-18T15:43:17;8.30;99.90
7494;DHT22;3788;49.902;8.590;2023-11-18T15:45:44;8.30;99.90
7494;DHT22;3788;49.902;8.590;2023-11-18T15:48:11;8.30;99.90
7494;DHT22;3788;49.902;8.590;2023-11-18T15:50:41;8.20;99.90
7494;DHT22;3788;49.902;8.590;2023-11-18T15:53:07;8.20;99.90
7494;DHT22;3788;49.902;8.590;2023-11-18T15:55:38;8.20;99.90
7494;DHT22;3788;49.902;8.590;2023-11-18T15:58:06;8.10;99.90
7494;DHT22;3788;49.902;8.590;2023-11-18T16:00:35;8.10;99.90
7494;DHT22;3788;49.902;8.590;2023-11-18T16:03:02;8.10;99.90
7494;DHT22;3788;49.902;8.590;2023-11-18T16:05:30;8.10;99.90
7494;DHT22;3788;49.902;8.590;2023-11-18T16:08:00;8.10;99.90
7494;DHT22;3788;49.902;8.590;2023-11-18T16:10:30;8.00;99.90
7494;DHT22;3788;49.902;8.590;2023-11-18T16:12:58;8.00;99.90
7494;DHT22;3788;49.902;8.590;2023-11-18T16:15:26;8.00;99.90
7494;DHT22;3788;49.902;8.590;2023-11-18T16:20:20;8.00;99.90
7494;DHT22;3788;49.902;8.590;2023-11-18T16:22:49;8.00;99.90
7494;DHT22;3788;49.902;8.590;2023-11-18T16:25:19;8.00;99.90
7494;DHT22;3788;49.902;8.590;2023-11-18T16:27:46;8.00;99.90
7494;DHT22;3788;49.902;8.590;2023-11-18T16:30:14;8.00;99.90
7494;DHT22;3788;49.902;8.590;2023-11-18T16:32:41;8.00;99.90
7494;DHT22;3788;49.902;8.590;2023-11-18T16:35:08;8.10;99.90
7494;DHT22;3788;49.902;8.590;2023-11-18T16:37:37;8.10;99.90